sensor_id;sensor_type;location;lat;lon;timestamp;pressure;altitude;pressure_sealevel;temperature;humidity
48390;BME280;34643;47.964;7.982;2023-09-07T00:02:22;96981.84;;;22.97;55.86
48390;BME280;34643;47.964;7.982;2023-09-07T00:07:23;96983.78;;;22.95;55.26
48390;BME280;34643;47.964;7.982;2023-09-07T00:12:23;96981.59;;;22.90;55.04
48390;BME280;34643;47.964;7.982;2023-09-07T00:17:23;96974.66;;;22.89;55.01
48390;BME280;34643;47.964;7.982;2023-09-07T00:22:24;96970.09;;;22.91;54.99
48390;BME280;34643;47.964;7.982;2023-09-07T00:27:27;96978.97;;;22.90;55.31
48390;BME280;34643;47.964;7.982;2023-09-07T00:32:27;96968.59;;;22.89;54.89
48390;BME280;34643;47.964;7.982;2023-09-07T00:37:28;96970.09;;;22.91;55.01
48390;BME280;34643;47.964;7.982;2023-09-07T00:42:28;96965.81;;;22.90;55.17
48390;BME280;34643;47.964;7.982;2023-09-07T00:47:28;96972.72;;;22.91;54.73
48390;BME280;34643;47.964;7.982;2023-09-07T00:52:29;96957.91;;;22.90;54.89
48390;BME280;34643;47.964;7.982;2023-09-07T00:57:30;96968.44;;;22.90;55.10
48390;BME280;34643;47.964;7.982;2023-09-07T01:02:30;96966.63;;;22.91;54.99
48390;BME280;34643;47.964;7.982;2023-09-07T01:07:38;96967.47;;;22.91;54.52
48390;BME280;34643;47.964;7.982;2023-09-07T01:12:40;96963.03;;;22.92;54.72
48390;BME280;34643;47.964;7.982;2023-09-07T01:17:40;96959.69;;;22.90;54.54
48390;BME280;34643;47.964;7.982;2023-09-07T01:22:41;96962.19;;;22.91;54.95
48390;BME280;34643;47.964;7.982;2023-09-07T01:27:42;96946.53;;;22.90;54.63
48390;BME280;34643;47.964;7.982;2023-09-07T01:32:42;96939.63;;;22.89;54.95
48390;BME280;34643;47.964;7.982;2023-09-07T01:37:43;96941.44;;;22.88;54.59
48390;BME280;34643;47.964;7.982;2023-09-07T01:42:43;96939.63;;;22.89;54.97
48390;BME280;34643;47.964;7.982;2023-09-07T01:47:43;96942.00;;;22.82;54.17
48390;BME280;34643;47.964;7.982;2023-09-07T01:52:45;96941.88;;;22.84;54.43
48390;BME280;34643;47.964;7.982;2023-09-07T01:57:46;96944.63;;;22.82;54.21
48390;BME280;34643;47.964;7.982;2023-09-07T02:02:46;96938.41;;;22.83;54.01
48390;BME280;34643;47.964;7.982;2023-09-07T02:07:46;96943.97;;;22.80;54.05
48390;BME280;34643;47.964;7.982;2023-09-07T02:12:49;96930.13;;;22.78;54.07
48390;BME280;34643;47.964;7.982;2023-09-07T02:17:49;96937.03;;;22.79;53.83
48390;BME280;34643;47.964;7.982;2023-09-07T02:22:54;96933.56;;;22.78;54.14
48390;BME280;34643;47.964;7.982;2023-09-07T02:27:55;96940.94;;;22.75;53.65
48390;BME280;34643;47.964;7.982;2023-09-07T02:32:55;96933.03;;;22.75;53.78
48390;BME280;34643;47.964;7.982;2023-09-07T02:37:56;96930.41;;;22.75;53.96
48390;BME280;34643;47.964;7.982;2023-09-07T02:42:56;96934.72;;;22.76;53.60
48390;BME280;34643;47.964;7.982;2023-09-07T02:47:56;96930.25;;;22.76;53.82
48390;BME280;34643;47.964;7.982;2023-09-07T02:52:57;96929.28;;;22.77;53.70
48390;BME280;34643;47.964;7.982;2023-09-07T02:57:57;96930.41;;;22.75;53.52
48390;BME280;34643;47.964;7.982;2023-09-07T03:02:58;96927.25;;;22.71;53.15
48390;BME280;34643;47.964;7.982;2023-09-07T03:07:59;96932.22;;;22.74;53.51
48390;BME280;34643;47.964;7.982;2023-09-07T03:12:59;96929.31;;;22.68;53.28
48390;BME280;34643;47.964;7.982;2023-09-07T03:17:59;96926.00;;;22.66;52.87
48390;BME280;34643;47.964;7.982;2023-09-07T03:23:01;96920.47;;;22.69;52.93
48390;BME280;34643;47.964;7.982;2023-09-07T03:28:02;96922.94;;;22.70;53.32
48390;BME280;34643;47.964;7.982;2023-09-07T03:33:05;96923.78;;;22.71;53.09
48390;BME280;34643;47.964;7.982;2023-09-07T03:38:05;96929.88;;;22.71;53.43
48390;BME280;34643;47.964;7.982;2023-09-07T03:43:06;96921.97;;;22.71;53.08
48390;BME280;34643;47.964;7.982;2023-09-07T03:48:06;96928.91;;;22.72;53.00
48390;BME280;34643;47.964;7.982;2023-09-07T03:53:08;96927.25;;;22.71;53.14
48390;BME280;34643;47.964;7.982;2023-09-07T03:58:09;96922.94;;;22.70;53.19
48390;BME280;34643;47.964;7.982;2023-09-07T04:03:10;96928.50;;;22.67;52.90
48390;BME280;34643;47.964;7.982;2023-09-07T04:08:10;96930.41;;;22.75;53.23
48390;BME280;34643;47.964;7.982;2023-09-07T04:13:11;96939.53;;;22.81;53.07
48390;BME280;34643;47.964;7.982;2023-09-07T04:18:11;96934.94;;;22.83;53.50
48390;BME280;34643;47.964;7.982;2023-09-07T04:23:16;96935.66;;;22.85;53.60
48390;BME280;34643;47.964;7.982;2023-09-07T04:28:17;96931.19;;;22.85;53.74
48390;BME280;34643;47.964;7.982;2023-09-07T04:33:19;96927.59;;;22.86;53.57
48390;BME280;34643;47.964;7.982;2023-09-07T04:38:19;96940.59;;;22.88;53.65
48390;BME280;34643;47.964;7.982;2023-09-07T04:43:20;96934.50;;;22.87;54.21
48390;BME280;34643;47.964;7.982;2023-09-07T04:48:20;96938.97;;;22.87;53.92
48390;BME280;34643;47.964;7.982;2023-09-07T04:53:21;96939.91;;;22.86;54.29
48390;BME280;34643;47.964;7.982;2023-09-07T04:58:21;96946.41;;;22.91;54.13
48390;BME280;34643;47.964;7.982;2023-09-07T05:03:21;96939.50;;;22.90;54.23
48390;BME280;34643;47.964;7.982;2023-09-07T05:08:22;96941.13;;;22.91;54.23
48390;BME280;34643;47.964;7.982;2023-09-07T05:13:24;96946.25;;;22.93;54.46
48390;BME280;34643;47.964;7.982;2023-09-07T05:18:25;96947.25;;;22.92;54.35
48390;BME280;34643;47.964;7.982;2023-09-07T05:23:25;96959.41;;;22.93;54.51
48390;BME280;34643;47.964;7.982;2023-09-07T05:28:27;96961.09;;;22.94;54.10
48390;BME280;34643;47.964;7.982;2023-09-07T05:33:29;96962.19;;;22.91;54.42
48390;BME280;34643;47.964;7.982;2023-09-07T05:38:30;96963.72;;;22.94;54.77
48390;BME280;34643;47.964;7.982;2023-09-07T05:43:30;96959.41;;;22.93;54.39
48390;BME280;34643;47.964;7.982;2023-09-07T05:48:31;96964.81;;;22.91;54.59
48390;BME280;34643;47.964;7.982;2023-09-07T05:53:31;96962.88;;;22.93;54.65
48390;BME280;34643;47.964;7.982;2023-09-07T05:58:32;96967.19;;;22.94;54.54
48390;BME280;34643;47.964;7.982;2023-09-07T06:03:33;96966.22;;;22.95;54.43
48390;BME280;34643;47.964;7.982;2023-09-07T06:08:35;96962.59;;;22.96;54.60
48390;BME280;34643;47.964;7.982;2023-09-07T06:13:35;96963.75;;;22.84;53.48
48390;BME280;34643;47.964;7.982;2023-09-07T06:18:36;96952.97;;;22.77;53.45
48390;BME280;34643;47.964;7.982;2023-09-07T06:23:36;96961.97;;;22.75;53.22
48390;BME280;34643;47.964;7.982;2023-09-07T06:28:37;96964.81;;;22.54;52.44
48390;BME280;34643;47.964;7.982;2023-09-07T06:33:37;96953.59;;;22.52;51.87
48390;BME280;34643;47.964;7.982;2023-09-07T06:38:37;96956.22;;;22.52;52.31
48390;BME280;34643;47.964;7.982;2023-09-07T06:43:38;96959.44;;;22.46;52.02
48390;BME280;34643;47.964;7.982;2023-09-07T06:48:41;96961.91;;;22.47;52.59
48390;BME280;34643;47.964;7.982;2023-09-07T06:53:41;96961.78;;;22.49;53.34
48390;BME280;34643;47.964;7.982;2023-09-07T06:58:42;96969.13;;;22.45;53.09
48390;BME280;34643;47.964;7.982;2023-09-07T07:03:42;96970.66;;;22.48;52.89
48390;BME280;34643;47.964;7.982;2023-09-07T07:08:42;96971.59;;;22.47;52.74
48390;BME280;34643;47.964;7.982;2023-09-07T07:13:43;96971.59;;;22.47;52.73
48390;BME280;34643;47.964;7.982;2023-09-07T07:18:44;96962.34;;;22.43;52.55
48390;BME280;34643;47.964;7.982;2023-09-07T07:23:45;96966.22;;;22.48;53.29
48390;BME280;34643;47.964;7.982;2023-09-07T07:28:45;96973.28;;;22.48;52.60
48390;BME280;34643;47.964;7.982;2023-09-07T07:33:47;96971.75;;;22.45;53.00
48390;BME280;34643;47.964;7.982;2023-09-07T07:38:48;96975.47;;;22.52;52.98
48390;BME280;34643;47.964;7.982;2023-09-07T07:43:49;96980.72;;;22.52;53.41
48390;BME280;34643;47.964;7.982;2023-09-07T07:48:49;96975.88;;;22.57;53.41
48390;BME280;34643;47.964;7.982;2023-09-07T07:53:50;96967.03;;;22.58;53.56
48390;BME280;34643;47.964;7.982;2023-09-07T07:58:51;96968.66;;;22.59;53.91
48390;BME280;34643;47.964;7.982;2023-09-07T08:03:52;96977.28;;;22.62;53.85
48390;BME280;34643;47.964;7.982;2023-09-07T08:08:54;96979.72;;;22.63;54.45
48390;BME280;34643;47.964;7.982;2023-09-07T08:13:55;96974.19;;;22.66;54.14
48390;BME280;34643;47.964;7.982;2023-09-07T08:18:55;96975.00;;;22.67;54.59
48390;BME280;34643;47.964;7.982;2023-09-07T08:23:55;96981.94;;;22.68;54.57
48390;BME280;34643;47.964;7.982;2023-09-07T08:28:56;96973.09;;;22.69;54.66
48390;BME280;34643;47.964;7.982;2023-09-07T08:33:57;96975.56;;;22.70;55.13
48390;BME280;34643;47.964;7.982;2023-09-07T08:38:58;96979.72;;;22.73;54.83
48390;BME280;34643;47.964;7.982;2023-09-07T08:44:01;96969.06;;;22.74;54.73
48390;BME280;34643;47.964;7.982;2023-09-07T08:49:02;96979.44;;;22.76;54.71
48390;BME280;34643;47.964;7.982;2023-09-07T08:54:04;96977.78;;;22.75;55.07
48390;BME280;34643;47.964;7.982;2023-09-07T08:59:04;96983.03;;;22.75;55.33
48390;BME280;34643;47.964;7.982;2023-09-07T09:04:05;96989.97;;;22.76;55.39
48390;BME280;34643;47.964;7.982;2023-09-07T09:09:06;96988.16;;;22.76;55.19
48390;BME280;34643;47.964;7.982;2023-09-07T09:14:06;96987.16;;;22.77;55.11
48390;BME280;34643;47.964;7.982;2023-09-07T09:19:07;96985.38;;;22.78;55.36
48390;BME280;34643;47.964;7.982;2023-09-07T09:24:12;96984.41;;;22.79;54.94
48390;BME280;34643;47.964;7.982;2023-09-07T09:29:12;96978.16;;;22.80;54.97
48390;BME280;34643;47.964;7.982;2023-09-07T09:34:14;96975.53;;;22.80;55.11
48390;BME280;34643;47.964;7.982;2023-09-07T09:39:21;96978.16;;;22.80;55.13
48390;BME280;34643;47.964;7.982;2023-09-07T09:44:22;96983.28;;;22.82;55.13
48390;BME280;34643;47.964;7.982;2023-09-07T09:49:25;96970.97;;;22.82;55.28
48390;BME280;34643;47.964;7.982;2023-09-07T09:54:26;96965.69;;;22.82;55.28
48390;BME280;34643;47.964;7.982;2023-09-07T09:59:27;96963.75;;;22.84;55.48
48390;BME280;34643;47.964;7.982;2023-09-07T10:04:28;96959.16;;;22.86;55.48
48390;BME280;34643;47.964;7.982;2023-09-07T10:09:32;96948.63;;;22.86;55.52
48390;BME280;34643;47.964;7.982;2023-09-07T10:14:39;96951.13;;;22.88;55.54
48390;BME280;34643;47.964;7.982;2023-09-07T10:19:40;96948.34;;;22.89;55.64
48390;BME280;34643;47.964;7.982;2023-09-07T10:24:56;96944.91;;;22.89;55.16
48390;BME280;34643;47.964;7.982;2023-09-07T10:29:57;96941.28;;;22.90;55.43
48390;BME280;34643;47.964;7.982;2023-09-07T10:34:59;96942.13;;;22.90;55.76
48390;BME280;34643;47.964;7.982;2023-09-07T10:39:59;96942.66;;;22.94;55.60
48390;BME280;34643;47.964;7.982;2023-09-07T10:45:07;96943.34;;;22.96;55.68
48390;BME280;34643;47.964;7.982;2023-09-07T10:50:10;96947.78;;;22.95;55.59
48390;BME280;34643;47.964;7.982;2023-09-07T10:55:11;96933.78;;;22.95;55.44
48390;BME280;34643;47.964;7.982;2023-09-07T11:00:11;96929.38;;;22.95;55.74
48390;BME280;34643;47.964;7.982;2023-09-07T11:05:12;96916.22;;;22.95;56.06
48390;BME280;34643;47.964;7.982;2023-09-07T11:10:12;96923.09;;;22.96;55.73
48390;BME280;34643;47.964;7.982;2023-09-07T11:15:12;96919.66;;;22.96;56.22
48390;BME280;34643;47.964;7.982;2023-09-07T11:20:13;96912.56;;;22.96;56.04
48390;BME280;34643;47.964;7.982;2023-09-07T11:25:13;96912.44;;;22.98;55.93
48390;BME280;34643;47.964;7.982;2023-09-07T11:30:14;96904.53;;;22.98;55.89
48390;BME280;34643;47.964;7.982;2023-09-07T11:35:15;96911.47;;;22.99;56.22
48390;BME280;34643;47.964;7.982;2023-09-07T11:40:16;96907.03;;;23.00;56.08
48390;BME280;34643;47.964;7.982;2023-09-07T11:45:16;96907.84;;;23.00;56.50
48390;BME280;34643;47.964;7.982;2023-09-07T11:50:18;96905.06;;;23.02;56.27
48390;BME280;34643;47.964;7.982;2023-09-07T11:55:18;96905.91;;;23.02;56.66
48390;BME280;34643;47.964;7.982;2023-09-07T12:00:19;96902.44;;;23.02;56.45
48390;BME280;34643;47.964;7.982;2023-09-07T12:05:19;96901.47;;;23.03;56.59
48390;BME280;34643;47.964;7.982;2023-09-07T12:10:20;96896.22;;;23.03;56.37
48390;BME280;34643;47.964;7.982;2023-09-07T12:15:20;96897.84;;;23.04;56.93
48390;BME280;34643;47.964;7.982;2023-09-07T12:20:21;96896.06;;;23.04;56.50
48390;BME280;34643;47.964;7.982;2023-09-07T12:25:21;96894.28;;;23.05;56.76
48390;BME280;34643;47.964;7.982;2023-09-07T12:30:21;96889.84;;;23.05;56.45
48390;BME280;34643;47.964;7.982;2023-09-07T12:35:23;96887.06;;;23.07;57.06
48390;BME280;34643;47.964;7.982;2023-09-07T12:40:24;96880.97;;;23.06;57.10
48390;BME280;34643;47.964;7.982;2023-09-07T12:45:24;96878.22;;;23.08;57.44
48390;BME280;34643;47.964;7.982;2023-09-07T12:50:25;96877.38;;;23.07;57.44
48390;BME280;34643;47.964;7.982;2023-09-07T12:55:25;96874.72;;;23.07;57.16
48390;BME280;34643;47.964;7.982;2023-09-07T13:00:25;96885.13;;;23.09;57.19
48390;BME280;34643;47.964;7.982;2023-09-07T13:05:26;96875.41;;;23.09;57.24
48390;BME280;34643;47.964;7.982;2023-09-07T13:10:26;96870.13;;;23.09;57.16
48390;BME280;34643;47.964;7.982;2023-09-07T13:15:26;96871.00;;;23.10;57.49
48390;BME280;34643;47.964;7.982;2023-09-07T13:20:26;96866.53;;;23.10;57.23
48390;BME280;34643;47.964;7.982;2023-09-07T13:25:27;96864.59;;;23.12;57.31
48390;BME280;34643;47.964;7.982;2023-09-07T13:30:28;96861.00;;;23.13;57.51
48390;BME280;34643;47.964;7.982;2023-09-07T13:35:28;96855.72;;;23.13;57.29
48390;BME280;34643;47.964;7.982;2023-09-07T13:40:28;96856.53;;;23.14;57.61
48390;BME280;34643;47.964;7.982;2023-09-07T13:45:29;96852.94;;;23.15;57.53
48390;BME280;34643;47.964;7.982;2023-09-07T13:50:29;96862.63;;;23.14;57.55
48390;BME280;34643;47.964;7.982;2023-09-07T13:55:30;96852.94;;;23.15;57.83
48390;BME280;34643;47.964;7.982;2023-09-07T14:00:30;96849.31;;;23.16;57.38
48390;BME280;34643;47.964;7.982;2023-09-07T14:05:31;96855.25;;;23.18;57.77
48390;BME280;34643;47.964;7.982;2023-09-07T14:10:31;96857.75;;;23.20;57.30
48390;BME280;34643;47.964;7.982;2023-09-07T14:15:31;96855.94;;;23.20;57.44
48390;BME280;34643;47.964;7.982;2023-09-07T14:20:31;96855.94;;;23.20;57.64
48390;BME280;34643;47.964;7.982;2023-09-07T14:25:32;96852.34;;;23.21;57.70
48390;BME280;34643;47.964;7.982;2023-09-07T14:30:32;96845.41;;;23.20;57.79
48390;BME280;34643;47.964;7.982;2023-09-07T14:35:32;96858.41;;;23.22;57.27
48390;BME280;34643;47.964;7.982;2023-09-07T14:40:32;96857.47;;;23.23;57.40
48390;BME280;34643;47.964;7.982;2023-09-07T14:45:33;96860.91;;;23.23;57.57
48390;BME280;34643;47.964;7.982;2023-09-07T14:50:33;96861.75;;;23.24;57.34
48390;BME280;34643;47.964;7.982;2023-09-07T14:55:33;96860.75;;;23.25;57.28
48390;BME280;34643;47.964;7.982;2023-09-07T15:00:34;96851.06;;;23.25;57.63
48390;BME280;34643;47.964;7.982;2023-09-07T15:05:34;96853.53;;;23.27;57.30
48390;BME280;34643;47.964;7.982;2023-09-07T15:10:35;96851.75;;;23.27;57.60
48390;BME280;34643;47.964;7.982;2023-09-07T15:15:35;96845.50;;;23.28;57.24
48390;BME280;34643;47.964;7.982;2023-09-07T15:20:40;96847.31;;;23.28;57.37
48390;BME280;34643;47.964;7.982;2023-09-07T15:25:40;96839.25;;;23.29;57.45
48390;BME280;34643;47.964;7.982;2023-09-07T15:30:40;96846.16;;;23.30;57.17
48390;BME280;34643;47.964;7.982;2023-09-07T15:35:40;96841.75;;;23.31;57.01
48390;BME280;34643;47.964;7.982;2023-09-07T15:40:41;96842.56;;;23.31;57.20
48390;BME280;34643;47.964;7.982;2023-09-07T15:45:44;96833.66;;;23.32;57.19
48390;BME280;34643;47.964;7.982;2023-09-07T15:50:45;96845.88;;;23.33;56.96
48390;BME280;34643;47.964;7.982;2023-09-07T15:55:45;96850.19;;;23.34;57.17
48390;BME280;34643;47.964;7.982;2023-09-07T16:00:46;96844.91;;;23.34;57.11
48390;BME280;34643;47.964;7.982;2023-09-07T16:05:47;96847.38;;;23.36;56.92
48390;BME280;34643;47.964;7.982;2023-09-07T16:10:47;96847.53;;;23.34;56.85
48390;BME280;34643;47.964;7.982;2023-09-07T16:15:47;96846.41;;;23.37;56.94
48390;BME280;34643;47.964;7.982;2023-09-07T16:20:48;96850.84;;;23.37;56.97
48390;BME280;34643;47.964;7.982;2023-09-07T16:25:49;96844.59;;;23.38;57.00
48390;BME280;34643;47.964;7.982;2023-09-07T16:30:50;96840.31;;;23.37;57.05
48390;BME280;34643;47.964;7.982;2023-09-07T16:35:50;96841.00;;;23.39;57.01
48390;BME280;34643;47.964;7.982;2023-09-07T16:40:50;96843.63;;;23.39;56.92
48390;BME280;34643;47.964;7.982;2023-09-07T16:46:00;96841.81;;;23.39;57.00
48390;BME280;34643;47.964;7.982;2023-09-07T16:51:01;96853.16;;;23.40;56.93
48390;BME280;34643;47.964;7.982;2023-09-07T16:56:01;96854.16;;;23.39;57.01
48390;BME280;34643;47.964;7.982;2023-09-07T17:01:05;96852.19;;;23.41;57.35
48390;BME280;34643;47.964;7.982;2023-09-07T17:06:05;96856.50;;;23.42;57.17
48390;BME280;34643;47.964;7.982;2023-09-07T17:11:05;96859.13;;;23.42;57.55
48390;BME280;34643;47.964;7.982;2023-09-07T17:16:06;96859.13;;;23.42;57.73
48390;BME280;34643;47.964;7.982;2023-09-07T17:21:06;96860.78;;;23.43;57.60
48390;BME280;34643;47.964;7.982;2023-09-07T17:26:06;96867.72;;;23.44;57.25
48390;BME280;34643;47.964;7.982;2023-09-07T17:31:13;96860.47;;;23.46;57.60
48390;BME280;34643;47.964;7.982;2023-09-07T17:36:18;96865.75;;;23.46;57.40
48390;BME280;34643;47.964;7.982;2023-09-07T17:41:19;96877.09;;;23.46;57.17
48390;BME280;34643;47.964;7.982;2023-09-07T17:46:20;96871.00;;;23.46;57.15
48390;BME280;34643;47.964;7.982;2023-09-07T17:51:20;96873.66;;;23.46;57.45
48390;BME280;34643;47.964;7.982;2023-09-07T17:56:21;96886.00;;;23.45;57.46
48390;BME280;34643;47.964;7.982;2023-09-07T18:01:21;96896.38;;;23.47;57.22
48390;BME280;34643;47.964;7.982;2023-09-07T18:06:21;96885.84;;;23.47;57.24
48390;BME280;34643;47.964;7.982;2023-09-07T18:11:22;96892.75;;;23.48;57.53
48390;BME280;34643;47.964;7.982;2023-09-07T18:16:22;96894.56;;;23.47;57.67
48390;BME280;34643;47.964;7.982;2023-09-07T18:21:23;96898.03;;;23.48;57.71
48390;BME280;34643;47.964;7.982;2023-09-07T18:26:23;96904.97;;;23.49;58.16
48390;BME280;34643;47.964;7.982;2023-09-07T18:31:24;96908.41;;;23.49;58.24
48390;BME280;34643;47.964;7.982;2023-09-07T18:36:24;96921.44;;;23.51;58.13
48390;BME280;34643;47.964;7.982;2023-09-07T18:41:24;96919.63;;;23.51;57.88
48390;BME280;34643;47.964;7.982;2023-09-07T18:46:24;96915.34;;;23.50;57.91
48390;BME280;34643;47.964;7.982;2023-09-07T18:51:25;96918.53;;;23.54;58.17
48390;BME280;34643;47.964;7.982;2023-09-07T18:56:25;96911.06;;;23.67;58.48
48390;BME280;34643;47.964;7.982;2023-09-07T19:01:25;96912.38;;;23.81;57.85
48390;BME280;34643;47.964;7.982;2023-09-07T19:06:26;96919.56;;;23.79;59.13
48390;BME280;34643;47.964;7.982;2023-09-07T19:11:26;96919.06;;;23.76;58.83
48390;BME280;34643;47.964;7.982;2023-09-07T19:16:26;96907.66;;;23.75;59.17
48390;BME280;34643;47.964;7.982;2023-09-07T19:21:27;96903.91;;;23.78;58.92
48390;BME280;34643;47.964;7.982;2023-09-07T19:26:30;96908.19;;;23.79;59.33
48390;BME280;34643;47.964;7.982;2023-09-07T19:31:30;96912.47;;;23.80;59.48
48390;BME280;34643;47.964;7.982;2023-09-07T19:36:31;96916.09;;;23.79;59.98
48390;BME280;34643;47.964;7.982;2023-09-07T19:41:31;96913.78;;;23.76;59.84
48390;BME280;34643;47.964;7.982;2023-09-07T19:46:34;96920.00;;;23.75;60.21
48390;BME280;34643;47.964;7.982;2023-09-07T19:51:34;96917.38;;;23.75;60.00
48390;BME280;34643;47.964;7.982;2023-09-07T19:56:34;96921.00;;;23.73;59.75
48390;BME280;34643;47.964;7.982;2023-09-07T20:01:51;96921.84;;;23.74;59.91
48390;BME280;34643;47.964;7.982;2023-09-07T20:06:52;96923.66;;;23.73;59.79
48390;BME280;34643;47.964;7.982;2023-09-07T20:11:54;96927.91;;;23.75;59.67
48390;BME280;34643;47.964;7.982;2023-09-07T20:16:54;96932.38;;;23.74;59.75
48390;BME280;34643;47.964;7.982;2023-09-07T20:21:55;96926.28;;;23.73;59.45
48390;BME280;34643;47.964;7.982;2023-09-07T20:26:55;96921.00;;;23.73;59.48
48390;BME280;34643;47.964;7.982;2023-09-07T20:31:55;96921.84;;;23.74;59.54
48390;BME280;34643;47.964;7.982;2023-09-07T20:36:55;96927.09;;;23.74;59.63
48390;BME280;34643;47.964;7.982;2023-09-07T20:41:56;96929.22;;;23.70;59.90
48390;BME280;34643;47.964;7.982;2023-09-07T20:46:56;96929.13;;;23.62;60.48
48390;BME280;34643;47.964;7.982;2023-09-07T20:51:57;96927.63;;;23.60;60.58
48390;BME280;34643;47.964;7.982;2023-09-07T20:56:58;96922.50;;;23.58;60.43
48390;BME280;34643;47.964;7.982;2023-09-07T21:01:58;96920.41;;;23.62;59.96
48390;BME280;34643;47.964;7.982;2023-09-07T21:06:58;96927.09;;;23.56;61.21
48390;BME280;34643;47.964;7.982;2023-09-07T21:11:59;96920.31;;;23.53;60.59
48390;BME280;34643;47.964;7.982;2023-09-07T21:16:59;96922.25;;;23.51;61.29
48390;BME280;34643;47.964;7.982;2023-09-07T21:21:59;96918.66;;;23.52;60.87
48390;BME280;34643;47.964;7.982;2023-09-07T21:27:00;96924.91;;;23.51;60.53
48390;BME280;34643;47.964;7.982;2023-09-07T21:42:00;96932.28;;;23.48;60.59
48390;BME280;34643;47.964;7.982;2023-09-07T21:47:01;96936.19;;;23.44;60.82
48390;BME280;34643;47.964;7.982;2023-09-07T21:52:01;96922.63;;;23.39;60.67
48390;BME280;34643;47.964;7.982;2023-09-07T21:57:02;96923.59;;;23.38;60.69
48390;BME280;34643;47.964;7.982;2023-09-07T22:02:03;96920.00;;;23.39;60.51
48390;BME280;34643;47.964;7.982;2023-09-07T22:07:03;96924.59;;;23.37;61.11
48390;BME280;34643;47.964;7.982;2023-09-07T22:12:05;96926.22;;;23.38;60.77
48390;BME280;34643;47.964;7.982;2023-09-07T22:17:05;96912.69;;;23.32;61.06
48390;BME280;34643;47.964;7.982;2023-09-07T22:22:05;96921.28;;;23.34;61.21
48390;BME280;34643;47.964;7.982;2023-09-07T22:27:06;96918.19;;;23.39;60.65
48390;BME280;34643;47.964;7.982;2023-09-07T22:32:06;96920.69;;;23.41;61.01
48390;BME280;34643;47.964;7.982;2023-09-07T22:37:06;96922.50;;;23.40;60.66
48390;BME280;34643;47.964;7.982;2023-09-07T22:42:07;96911.44;;;23.37;61.02
48390;BME280;34643;47.964;7.982;2023-09-07T22:47:07;96913.91;;;23.38;60.83
48390;BME280;34643;47.964;7.982;2023-09-07T22:52:08;96911.56;;;23.35;60.71
48390;BME280;34643;47.964;7.982;2023-09-07T22:57:08;96909.09;;;23.33;60.93
48390;BME280;34643;47.964;7.982;2023-09-07T23:02:08;96911.03;;;23.31;60.78
48390;BME280;34643;47.964;7.982;2023-09-07T23:07:09;96920.44;;;23.34;60.93
48390;BME280;34643;47.964;7.982;2023-09-07T23:12:09;96921.56;;;23.31;60.88
48390;BME280;34643;47.964;7.982;2023-09-07T23:17:09;96914.63;;;23.30;61.20
48390;BME280;34643;47.964;7.982;2023-09-07T23:22:10;96915.31;;;23.32;60.76
48390;BME280;34643;47.964;7.982;2023-09-07T23:27:10;96913.00;;;23.29;60.84
48390;BME280;34643;47.964;7.982;2023-09-07T23:32:10;96907.59;;;23.31;60.95
48390;BME280;34643;47.964;7.982;2023-09-07T23:37:11;96918.13;;;23.31;61.00
48390;BME280;34643;47.964;7.982;2023-09-07T23:42:11;96916.44;;;23.30;60.68
48390;BME280;34643;47.964;7.982;2023-09-07T23:47:11;96909.69;;;23.27;60.67
48390;BME280;34643;47.964;7.982;2023-09-07T23:52:11;96916.75;;;23.27;60.70
48390;BME280;34643;47.964;7.982;2023-09-07T23:57:12;96922.00;;;23.27;60.91
